Date,TemperatureHighF,TemperatureAvgF,TemperatureLowF,DewpointHighF,DewpointAvgF,DewpointLowF,HumidityHigh,HumidityAvg,HumidityLow,PressureMaxIn,PressureMinIn,WindSpeedMaxMPH,WindSpeedAvgMPH,GustSpeedMaxMPH,PrecipitationSumIn
2013-6-1,91.0,70.6,54.0,46.0,41.8,32.0,67,39,19,0.00,40.00,5,1,11,0.00
2013-6-2,92.0,74.2,58.0,45.0,37.5,24.0,43,28,17,0.00,40.00,5,1,13,0.00
2013-6-3,88.0,71.8,55.0,47.0,42.6,35.0,57,37,23,0.00,40.00,4,1,14,0.00
2013-6-4,87.0,71.1,57.0,50.0,46.4,39.0,66,44,27,0.00,40.00,5,2,12,0.00
2013-6-5,88.0,71.6,57.0,53.0,50.0,46.0,73,49,30,0.00,40.00,5,2,11,0.00
2013-6-6,93.0,73.5,58.0,54.0,51.0,47.0,73,48,27,0.00,40.00,5,1,12,0.00
2013-6-7,97.0,77.8,62.0,56.0,52.2,45.0,62,44,26,0.00,40.00,5,2,11,0.00
2013-6-8,100.0,80.7,62.0,57.0,51.0,41.0,68,38,21,0.00,40.00,5,2,13,0.00
2013-6-9,94.0,78.0,66.0,53.0,48.8,40.0,59,39,20,0.00,40.00,5,2,11,0.00
2013-6-10,79.0,67.0,55.0,45.0,42.0,37.0,60,42,25,0.00,40.00,4,2,13,0.00
2013-6-11,92.0,70.9,54.0,46.0,42.5,38.0,64,40,17,0.00,40.00,4,2,13,0.00
2013-6-12,90.0,73.0,57.0,50.0,42.5,34.0,48,34,24,0.00,40.00,5,2,14,0.00
2013-6-13,80.0,65.9,51.0,41.0,33.7,27.0,60,34,15,0.00,40.00,5,2,13,0.00
2013-6-14,85.0,66.7,51.0,39.0,32.3,27.0,44,30,17,0.00,40.00,4,2,12,0.00
2013-6-15,87.0,69.9,54.0,37.0,32.4,28.0,43,27,15,0.00,40.00,5,2,15,0.00
2013-6-16,84.0,68.9,53.0,37.0,32.9,28.0,46,28,17,0.00,40.00,5,2,14,0.00
2013-6-17,83.0,66.7,54.0,41.0,38.0,33.0,51,36,23,0.00,40.00,5,1,13,0.00
2013-6-18,80.0,64.2,49.0,43.0,38.7,33.0,61,41,27,0.00,40.00,5,2,15,0.00
2013-6-19,72.0,57.6,41.0,41.0,38.0,35.0,79,51,31,0.00,40.00,5,2,12,0.00
2013-6-20,73.0,56.9,47.0,37.0,34.5,32.0,61,46,26,0.00,40.00,5,1,11,0.00
2013-6-22,86.0,75.3,62.0,39.0,36.4,34.0,37,25,18,0.00,40.00,5,2,13,0.00
2013-6-23,80.0,66.7,54.0,45.0,38.8,35.0,55,38,21,0.00,40.00,5,2,13,0.00
2013-6-24,74.0,62.3,52.0,53.0,44.9,35.0,72,53,45,0.00,40.00,4,1,13,0.00
2013-6-25,84.0,69.2,54.0,54.0,51.2,48.0,81,56,35,0.00,40.00,6,2,14,0.00
2013-6-26,88.0,73.3,59.0,59.0,54.6,49.0,72,54,35,0.00,40.00,5,2,13,0.00
2013-6-27,92.0,75.5,61.0,59.0,56.7,55.0,81,56,32,0.00,40.00,6,2,11,0.00
2013-6-28,97.0,80.8,64.0,57.0,55.2,53.0,69,45,25,0.00,40.00,4,2,15,0.00
2013-6-29,99.0,82.3,68.0,55.0,52.1,50.0,57,38,21,0.00,40.00,6,2,13,0.00
2013-6-30,104.0,84.9,70.0,54.0,51.0,45.0,50,34,19,0.00,40.00,4,2,12,0.00